METAR Formatted Surface Weather Observation
Issued by NWS Honolulu, HI

Home | Current Version | Previous Version | Text Only | Print | Product List | Glossary On
Versions: 1 2
000
SAHW31 PHFO 200342
MTRLIH
SPECI PHLI 200338Z 05013KT 10SM FEW022 SCT027 BKN080 27/21 A2998 RMK
AO2 $


USA.gov is the U.S. government's official web portal to all federal, state and local government web resources and services.